createdAt,value
2022-11-13T00:01:54.703Z,10.50
2022-11-13T00:07:20.108Z,10.70
2022-11-13T00:12:45.794Z,12.30
2022-11-13T00:18:09.322Z,10.20
2022-11-13T00:23:34.887Z,12.00
2022-11-13T00:29:02.618Z,11.60
2022-11-13T00:34:46.311Z,9.20
2022-11-13T00:40:07.888Z,13.20
2022-11-13T00:45:30.442Z,10.20
2022-11-13T00:50:53.406Z,10.40
2022-11-13T00:56:15.355Z,12.70
2022-11-13T01:01:37.738Z,8.90
2022-11-13T01:07:00.712Z,8.50
2022-11-13T01:12:23.052Z,8.40
2022-11-13T01:17:45.571Z,11.50
2022-11-13T01:23:08.348Z,11.50
2022-11-13T01:28:30.683Z,8.90
2022-11-13T01:33:53.944Z,8.50
2022-11-13T01:39:16.602Z,8.40
2022-11-13T01:44:52.474Z,8.50
2022-11-13T01:50:15.427Z,9.00
2022-11-13T01:55:38.082Z,8.50
2022-11-13T02:01:00.639Z,8.40
2022-11-13T02:06:24.527Z,7.90
2022-11-13T02:11:47.287Z,7.60
2022-11-13T02:17:14.748Z,9.50
2022-11-13T02:23:01.455Z,7.90
2022-11-13T02:28:23.906Z,9.00
2022-11-13T02:33:46.256Z,7.30
2022-11-13T02:39:11.333Z,8.40
2022-11-13T02:44:33.518Z,7.60
2022-11-13T02:49:56.729Z,6.80
2022-11-13T02:55:19.750Z,7.00
2022-11-13T03:00:42.109Z,7.60
2022-11-13T03:06:04.554Z,7.80
2022-11-13T03:11:27.315Z,7.50
2022-11-13T03:16:49.871Z,6.70
2022-11-13T03:22:12.425Z,7.80
2022-11-13T03:27:34.777Z,7.30
2022-11-13T03:32:58.146Z,7.00
2022-11-13T03:38:20.295Z,7.60
2022-11-13T03:43:43.049Z,5.90
2022-11-13T03:49:05.401Z,6.30
2022-11-13T03:54:27.958Z,6.90
2022-11-13T03:59:50.104Z,6.90
2022-11-13T04:05:12.352Z,6.30
2022-11-13T04:10:34.703Z,5.90
2022-11-13T04:15:56.949Z,6.80
2022-11-13T04:21:19.401Z,7.10
2022-11-13T04:26:41.956Z,6.50
2022-11-13T04:32:04.612Z,5.90
2022-11-13T04:37:27.065Z,6.20
2022-11-13T04:42:49.111Z,6.90
2022-11-13T04:48:11.459Z,6.50
2022-11-13T04:53:35.038Z,8.40
2022-11-13T04:58:57.183Z,6.20
2022-11-13T05:04:19.940Z,6.20
2022-11-13T05:09:42.496Z,5.10
2022-11-13T05:15:05.357Z,6.60
2022-11-13T05:20:27.604Z,8.70
2022-11-13T05:25:50.063Z,6.20
2022-11-13T05:31:15.272Z,6.60
2022-11-13T05:36:38.338Z,6.70
2022-11-13T05:42:00.996Z,7.10
2022-11-13T05:47:25.082Z,5.60
2022-11-13T05:52:48.461Z,7.60
2022-11-13T05:58:13.166Z,6.10
2022-11-13T06:03:36.433Z,8.70
2022-11-13T06:09:01.088Z,5.50
2022-11-13T06:14:23.490Z,6.10
2022-11-13T06:19:46.147Z,6.00
2022-11-13T06:25:08.840Z,5.70
2022-11-13T06:30:31.471Z,5.20
2022-11-13T06:35:54.224Z,6.30
2022-11-13T06:41:19.360Z,6.00
2022-11-13T06:46:41.889Z,5.90
2022-11-13T06:52:04.445Z,8.20
2022-11-13T06:57:27.002Z,7.10
2022-11-13T07:02:53.885Z,5.50
2022-11-13T07:08:20.709Z,6.80
2022-11-13T07:13:44.284Z,6.20
2022-11-13T07:19:11.237Z,6.80
2022-11-13T07:24:37.145Z,6.70
2022-11-13T07:30:04.253Z,6.90
2022-11-13T07:35:34.160Z,10.90
2022-11-13T07:40:59.195Z,6.70
2022-11-13T07:46:23.192Z,9.60
2022-11-13T07:51:45.499Z,7.10
2022-11-13T07:57:13.079Z,9.50
2022-11-13T08:02:37.790Z,7.90
2022-11-13T08:08:00.837Z,8.00
2022-11-13T08:13:26.773Z,7.90
2022-11-13T08:18:51.461Z,9.30
2022-11-13T08:24:24.789Z,8.00
2022-11-13T08:30:03.149Z,7.60
2022-11-13T08:35:29.383Z,8.10
2022-11-13T08:41:08.359Z,5.20
2022-11-13T08:46:56.720Z,4.30
2022-11-13T08:52:26.122Z,8.30
2022-11-13T08:57:51.940Z,6.30
2022-11-13T09:03:25.706Z,7.10
2022-11-13T09:08:57.008Z,6.40
2022-11-13T09:14:39.113Z,5.40
2022-11-13T09:20:22.993Z,6.30
2022-11-13T09:26:14.767Z,5.80
2022-11-13T09:31:41.549Z,8.20
2022-11-13T09:37:03.717Z,9.50
2022-11-13T09:42:29.189Z,7.40
2022-11-13T09:47:53.656Z,9.00
2022-11-13T09:53:17.367Z,7.40
2022-11-13T09:58:50.563Z,11.30
2022-11-13T10:04:16.392Z,10.00
2022-11-13T10:10:01.271Z,11.70
2022-11-13T10:15:27.165Z,10.10
2022-11-13T10:21:09.431Z,10.10
2022-11-13T10:26:36.001Z,9.90
2022-11-13T10:32:54.548Z,9.30
2022-11-13T10:38:46.329Z,10.50
2022-11-13T10:44:35.556Z,10.40
2022-11-13T10:50:09.988Z,11.90
2022-11-13T10:55:41.207Z,10.80
2022-11-13T11:01:15.029Z,9.70
2022-11-13T11:12:34.104Z,13.40
2022-11-13T11:18:07.124Z,11.40
2022-11-13T11:24:03.552Z,12.00
2022-11-13T11:29:39.716Z,15.70
2022-11-13T11:35:28.170Z,12.30
2022-11-13T11:40:58.049Z,11.20
2022-11-13T11:46:29.719Z,11.20
2022-11-13T11:52:12.970Z,16.20
2022-11-13T11:58:27.413Z,17.20
2022-11-13T12:04:05.216Z,13.80
2022-11-13T12:09:32.521Z,13.90
2022-11-13T12:15:16.314Z,20.40
2022-11-13T12:20:45.828Z,16.20
2022-11-13T12:26:45.745Z,14.20
2022-11-13T12:32:28.862Z,13.30
2022-11-13T12:37:53.972Z,12.60
2022-11-13T12:43:16.835Z,19.00
2022-11-13T12:48:50.347Z,15.10
2022-11-13T12:54:13.313Z,13.80
2022-11-13T12:59:45.251Z,15.60
2022-11-13T13:05:13.882Z,12.50
2022-11-13T13:10:56.683Z,15.90
2022-11-13T13:16:28.340Z,15.30
2022-11-13T13:21:51.408Z,18.70
2022-11-13T13:27:38.937Z,14.60
2022-11-13T13:33:16.005Z,14.70
2022-11-13T13:38:56.482Z,21.00
2022-11-13T13:44:53.422Z,21.20
2022-11-13T13:50:22.000Z,21.30
2022-11-13T13:55:56.673Z,22.90
2022-11-13T14:01:56.291Z,18.50
2022-11-13T14:07:38.959Z,17.60
2022-11-13T14:13:01.103Z,18.80
2022-11-13T14:18:24.010Z,18.40
2022-11-13T14:23:50.311Z,20.40
2022-11-13T14:29:46.222Z,22.10
2022-11-13T14:35:20.847Z,18.40
2022-11-13T14:40:55.703Z,19.20
2022-11-13T14:46:44.643Z,22.40
2022-11-13T14:52:07.402Z,19.60
2022-11-13T14:57:30.369Z,19.60
2022-11-13T15:02:57.357Z,23.60
2022-11-13T15:08:36.153Z,22.30
2022-11-13T15:14:20.149Z,22.50
2022-11-13T15:19:51.774Z,20.80
2022-11-13T15:25:21.161Z,22.60
2022-11-13T15:30:55.497Z,24.40
2022-11-13T15:36:47.823Z,26.40
2022-11-13T15:42:23.202Z,23.40
2022-11-13T15:47:59.539Z,25.70
2022-11-13T15:53:23.119Z,26.40
2022-11-13T15:59:03.177Z,26.50
2022-11-13T16:10:31.799Z,29.60
2022-11-13T16:16:06.200Z,25.50
2022-11-13T16:21:53.147Z,25.70
2022-11-13T16:27:23.644Z,26.70
2022-11-13T16:32:58.019Z,22.90
2022-11-13T16:38:34.132Z,25.50
2022-11-13T16:44:00.579Z,32.00
2022-11-13T16:49:43.563Z,27.30
2022-11-13T16:55:11.360Z,29.80
2022-11-13T17:00:42.503Z,29.50
2022-11-13T17:06:27.158Z,28.80
2022-11-13T17:11:50.452Z,40.40
2022-11-13T17:17:21.702Z,32.60
2022-11-13T17:22:49.376Z,26.60
2022-11-13T17:28:14.416Z,34.10
2022-11-13T17:33:41.342Z,23.60
2022-11-13T17:39:12.881Z,23.30
2022-11-13T17:45:04.298Z,25.90
2022-11-13T17:50:35.505Z,28.10
2022-11-13T17:56:14.153Z,26.80
2022-11-13T18:01:54.417Z,26.10
2022-11-13T18:07:40.438Z,25.10
2022-11-13T18:13:09.104Z,24.70
2022-11-13T18:18:45.411Z,25.30
2022-11-13T18:24:21.217Z,26.60
2022-11-13T18:29:46.171Z,25.10
2022-11-13T18:35:17.147Z,24.70
2022-11-13T18:41:06.277Z,24.10
2022-11-13T18:46:35.077Z,21.20
2022-11-13T18:52:06.227Z,22.70
2022-11-13T18:57:39.985Z,23.10
2022-11-13T19:03:17.242Z,26.60
2022-11-13T19:08:41.720Z,22.70
2022-11-13T19:14:18.531Z,24.00
2022-11-13T19:20:00.807Z,21.20
2022-11-13T19:25:41.169Z,20.20
2022-11-13T19:31:11.986Z,19.90
2022-11-13T19:36:42.233Z,20.80
2022-11-13T19:42:07.230Z,24.20
2022-11-13T19:47:32.693Z,24.20
2022-11-13T19:52:55.023Z,23.00
2022-11-13T19:58:17.577Z,23.50
2022-11-13T20:03:48.021Z,24.00
2022-11-13T20:09:11.382Z,20.40
2022-11-13T20:14:49.805Z,23.90
2022-11-13T20:20:15.636Z,26.10
2022-11-13T20:26:07.163Z,26.00
2022-11-13T20:31:34.433Z,28.70
2022-11-13T20:37:00.434Z,28.90
2022-11-13T20:42:28.198Z,23.10
2022-11-13T20:48:01.957Z,28.80
2022-11-13T20:53:26.966Z,25.20
2022-11-13T20:58:59.514Z,31.90
2022-11-13T21:04:23.311Z,26.20
2022-11-13T21:09:50.197Z,25.90
2022-11-13T21:15:19.061Z,22.00
2022-11-13T21:20:48.689Z,26.50
2022-11-13T21:26:19.315Z,23.90
2022-11-13T21:31:42.480Z,24.70
2022-11-13T21:37:21.721Z,23.70
2022-11-13T21:42:44.064Z,35.80
2022-11-13T21:48:06.794Z,23.90
2022-11-13T21:53:29.483Z,19.60
2022-11-13T21:58:51.631Z,26.90
2022-11-13T22:04:14.283Z,23.90
2022-11-13T22:09:42.394Z,28.00
2022-11-13T22:15:05.092Z,24.70
2022-11-13T22:20:27.635Z,25.70
2022-11-13T22:25:57.981Z,20.60
2022-11-13T22:31:25.712Z,23.40
2022-11-13T22:36:48.082Z,19.20
2022-11-13T22:42:10.757Z,20.90
2022-11-13T22:47:38.056Z,19.10
2022-11-13T22:53:04.456Z,19.20
2022-11-13T22:58:32.641Z,20.10
2022-11-13T23:03:58.046Z,20.80
2022-11-13T23:09:30.582Z,20.10
2022-11-13T23:14:55.274Z,19.50
2022-11-13T23:20:18.698Z,19.70
2022-11-13T23:25:46.538Z,17.10
2022-11-13T23:31:11.452Z,20.20
2022-11-13T23:36:34.828Z,18.50
2022-11-13T23:41:57.599Z,18.30
2022-11-13T23:47:20.144Z,19.50
2022-11-13T23:52:42.595Z,19.90
2022-11-13T23:58:08.131Z,22.10
